createdAt,value
2018-08-25T00:02:07.947Z,18.00
2018-08-25T00:07:42.800Z,17.90
2018-08-25T00:10:19.796Z,18.00
2018-08-25T00:13:01.527Z,17.90
2018-08-25T00:15:36.796Z,17.80
2018-08-25T00:18:16.719Z,17.80
2018-08-25T00:21:22.330Z,17.70
2018-08-25T00:24:23.885Z,17.80
2018-08-25T00:27:32.809Z,17.80
2018-08-25T00:48:23.700Z,17.80
2018-08-25T01:04:00.019Z,17.60
2018-08-25T01:09:49.219Z,17.50
2018-08-25T01:12:46.048Z,17.50
2018-08-25T01:15:28.702Z,17.50
2018-08-25T01:21:24.934Z,17.50
2018-08-25T01:24:28.604Z,17.60
2018-08-25T01:29:59.488Z,17.60
2018-08-25T01:32:37.933Z,17.60
2018-08-25T01:35:16.593Z,17.60
2018-08-25T01:37:52.485Z,17.60
2018-08-25T01:40:47.671Z,17.60
2018-08-25T01:43:33.873Z,17.60
2018-08-25T01:46:18.343Z,17.60
2018-08-25T01:49:05.155Z,17.70
2018-08-25T01:51:51.661Z,17.70
2018-08-25T02:00:20.061Z,17.70
2018-08-25T02:06:05.082Z,17.70
2018-08-25T06:39:36.529Z,17.70
2018-08-25T06:42:05.781Z,18.30
2018-08-25T06:44:55.937Z,18.40
2018-08-25T06:48:17.522Z,18.50
2018-08-25T06:53:50.654Z,18.60
2018-08-25T06:56:26.167Z,18.80
2018-08-25T06:58:57.921Z,18.80
2018-08-25T07:01:26.899Z,19.00
2018-08-25T07:03:58.388Z,19.00
2018-08-25T07:06:30.663Z,19.10
2018-08-25T07:09:01.872Z,19.00
2018-08-25T07:11:33.714Z,19.10
2018-08-25T07:14:07.009Z,19.40
2018-08-25T07:16:42.318Z,19.60
2018-08-25T07:19:11.965Z,19.80
2018-08-25T07:21:43.359Z,19.90
2018-08-25T07:24:17.521Z,19.90
2018-08-25T07:26:47.760Z,19.70
2018-08-25T07:29:17.044Z,19.70
2018-08-25T07:31:47.353Z,19.70
2018-08-25T07:34:17.110Z,19.60
2018-08-25T07:36:48.703Z,19.70
2018-08-25T07:39:18.766Z,19.70
2018-08-25T07:41:47.754Z,19.80
2018-08-25T07:44:18.083Z,19.80
2018-08-25T07:46:51.914Z,19.70
2018-08-25T07:49:22.194Z,19.70
2018-08-25T07:51:52.363Z,19.70
2018-08-25T07:54:21.682Z,19.70
2018-08-25T07:56:50.856Z,19.70
2018-08-25T07:59:22.405Z,19.80
2018-08-25T08:01:51.744Z,19.80
2018-08-25T08:04:20.976Z,19.80
2018-08-25T08:06:56.735Z,19.70
2018-08-25T08:09:26.468Z,19.60
2018-08-25T08:11:55.739Z,19.50
2018-08-25T08:14:25.444Z,19.40
2018-08-25T08:16:59.935Z,19.50
2018-08-25T08:19:30.258Z,19.40
2018-08-25T08:22:02.791Z,19.40
2018-08-25T08:24:35.188Z,19.40
2018-08-25T08:27:04.810Z,19.40
2018-08-25T08:29:34.329Z,19.20
2018-08-25T08:32:04.539Z,19.10
2018-08-25T08:34:37.895Z,19.00
2018-08-25T08:37:08.809Z,19.00
2018-08-25T08:39:40.274Z,19.10
2018-08-25T08:42:11.972Z,19.30
2018-08-25T08:44:43.945Z,19.40
2018-08-25T08:47:13.298Z,19.40
2018-08-25T08:49:53.721Z,19.40
2018-08-25T08:52:24.127Z,19.40
2018-08-25T08:54:56.605Z,19.40
2018-08-25T08:57:36.563Z,19.40
2018-08-25T09:00:19.718Z,19.40
2018-08-25T09:02:49.964Z,19.30
2018-08-25T09:08:24.757Z,19.10
2018-08-25T09:10:57.168Z,19.10
2018-08-25T09:13:32.067Z,19.20
2018-08-25T09:16:03.357Z,19.40
2018-08-25T09:18:34.662Z,19.60
2018-08-25T09:21:06.138Z,20.00
2018-08-25T09:26:48.763Z,20.20
2018-08-25T09:29:20.981Z,20.20
2018-08-25T09:31:52.982Z,20.10
2018-08-25T09:34:25.251Z,19.90
2018-08-25T09:36:58.916Z,20.10
2018-08-25T09:39:28.862Z,20.30
2018-08-25T09:41:59.917Z,20.20
2018-08-25T09:44:31.315Z,20.10
2018-08-25T09:47:01.191Z,20.00
2018-08-25T09:49:30.471Z,20.00
2018-08-25T09:52:00.035Z,20.00
2018-08-25T09:54:29.029Z,19.80
2018-08-25T09:56:58.343Z,19.80
2018-08-25T09:59:27.277Z,19.70
2018-08-25T10:02:02.888Z,19.60
2018-08-25T10:04:32.934Z,19.50
2018-08-25T10:07:02.750Z,19.30
2018-08-25T10:09:31.640Z,19.50
2018-08-25T10:12:00.825Z,19.90
2018-08-25T10:14:30.648Z,19.90
2018-08-25T10:16:59.962Z,19.90
2018-08-25T10:19:29.088Z,19.80
2018-08-25T10:21:58.027Z,19.80
2018-08-25T10:24:27.191Z,19.40
2018-08-25T10:27:03.678Z,18.90
2018-08-25T10:29:33.559Z,18.90
2018-08-25T10:32:03.165Z,19.00
2018-08-25T10:34:32.492Z,18.90
2018-08-25T10:37:01.289Z,18.80
2018-08-25T10:39:30.656Z,18.80
2018-08-25T10:42:00.413Z,18.60
2018-08-25T10:44:31.206Z,18.30
2018-08-25T10:47:01.745Z,18.30
2018-08-25T10:49:32.068Z,18.40
2018-08-25T10:52:01.996Z,18.40
2018-08-25T10:57:45.532Z,18.00
2018-08-25T11:00:19.704Z,18.00
2018-08-25T11:02:49.709Z,18.10
2018-08-25T11:05:19.497Z,18.00
2018-08-25T11:07:48.354Z,17.90
2018-08-25T11:10:23.191Z,17.70
2018-08-25T11:13:06.720Z,17.60
2018-08-25T11:15:47.193Z,17.50
2018-08-25T11:18:25.394Z,17.30
2018-08-25T11:23:57.894Z,17.20
2018-08-25T11:26:50.724Z,17.10
2018-08-25T11:32:28.136Z,17.00
2018-08-25T11:38:07.368Z,17.00
2018-08-25T11:41:07.325Z,16.90
2018-08-25T11:49:24.100Z,16.80
2018-08-25T11:52:10.552Z,16.70
2018-08-25T11:55:03.305Z,16.50
2018-08-25T11:57:40.484Z,16.50
2018-08-25T12:00:20.551Z,16.40
2018-08-25T12:03:03.830Z,16.50
2018-08-25T12:05:42.897Z,16.30
2018-08-25T12:08:22.277Z,16.20
2018-08-25T12:10:58.816Z,16.20
2018-08-25T12:16:16.583Z,16.10
2018-08-25T12:18:57.020Z,16.00
2018-08-25T12:21:45.766Z,16.00
2018-08-25T12:24:35.547Z,16.10
2018-08-25T12:30:02.923Z,16.00
2018-08-25T12:32:50.143Z,16.00
2018-08-25T12:35:36.353Z,16.00
2018-08-25T12:38:12.938Z,16.00
2018-08-25T12:41:04.248Z,16.00
2018-08-25T12:43:44.305Z,16.00
2018-08-25T12:46:26.688Z,15.90
2018-08-25T12:49:13.512Z,15.90
